Time;durP1;ratioP1;P1;durP2;ratioP2;P2;SDS_P1;SDS_P2;PMS_P1;PMS_P2;Temp;Humidity;BMP_temperature;BMP_pressure;BME280_temperature;BME280_humidity;BME280_pressure;Samples;Min_cycle;Max_cycle;Signal;HPM_P1;HPM_P2
2023/08/03 00:00:52;;;;;;;6.47;2.35;;;;;;;27.80;55.06;98078.63;2087232;28;20052;-54
2023/08/03 00:01:53;;;;;;;6.18;3.20;;;;;;;27.81;55.65;98074.81;2086894;28;20045;-51
2023/08/03 00:02:56;;;;;;;5.88;3.13;;;;;;;27.84;55.23;98077.00;2079569;28;20045;-50
2023/08/03 00:04:00;;;;;;;4.68;3.15;;;;;;;27.79;55.74;98076.97;2074819;28;20144;-54
2023/08/03 00:05:02;;;;;;;6.20;3.00;;;;;;;27.76;55.92;98075.63;2086438;28;20070;-53
2023/08/03 00:06:04;;;;;;;7.88;3.10;;;;;;;27.82;55.60;98085.44;2085553;28;20067;-50
2023/08/03 00:07:05;;;;;;;8.88;3.13;;;;;;;27.80;55.14;98074.00;2087737;28;20051;-54
2023/08/03 00:08:06;;;;;;;5.50;3.05;;;;;;;27.77;55.35;98073.69;2088844;28;20516;-54
2023/08/03 00:09:07;;;;;;;7.82;3.00;;;;;;;27.74;55.60;98076.97;2088032;28;20163;-53
2023/08/03 00:10:09;;;;;;;6.70;2.80;;;;;;;27.76;55.71;98077.53;2086179;28;20143;-50
2023/08/03 00:11:10;;;;;;;10.57;3.17;;;;;;;27.82;55.75;98073.72;2089259;28;20037;-53
2023/08/03 00:12:11;;;;;;;5.95;3.40;;;;;;;27.83;55.53;98072.63;2084005;28;20518;-50
2023/08/03 00:13:13;;;;;;;10.20;2.97;;;;;;;27.75;55.55;98067.69;2085592;28;20045;-53
2023/08/03 00:14:14;;;;;;;9.98;3.55;;;;;;;27.75;55.47;98064.97;2086039;28;20141;-55
2023/08/03 00:15:16;;;;;;;10.55;2.97;;;;;;;27.61;56.27;98064.78;2088249;28;20049;-53
2023/08/03 00:16:17;;;;;;;9.13;3.42;;;;;;;27.63;56.23;98062.56;2086458;28;20093;-53
2023/08/03 00:17:18;;;;;;;5.50;3.10;;;;;;;27.65;56.07;98071.28;2086872;28;20561;-53
2023/08/03 00:18:21;;;;;;;10.30;4.45;;;;;;;27.57;56.56;98074.56;2084707;28;20052;-50
2023/08/03 00:19:22;;;;;;;8.18;3.00;;;;;;;27.50;56.65;98082.22;2088370;28;20244;-54
2023/08/03 00:20:23;;;;;;;7.20;2.75;;;;;;;27.47;57.00;98075.44;2077192;28;20164;-57
2023/08/03 00:21:24;;;;;;;9.73;2.90;;;;;;;27.46;56.69;98064.78;2079929;28;20056;-56
2023/08/03 00:22:26;;;;;;;9.73;3.38;;;;;;;27.44;56.69;98067.78;2083645;28;20334;-51
2023/08/03 00:23:26;;;;;;;4.88;3.00;;;;;;;27.43;56.67;98068.06;2087239;28;20063;-54
2023/08/03 00:24:28;;;;;;;7.57;3.22;;;;;;;27.42;56.96;98066.44;2084843;28;20543;-47
2023/08/03 00:25:31;;;;;;;4.40;2.85;;;;;;;27.39;56.51;98063.19;2087301;28;20076;-50
2023/08/03 00:26:33;;;;;;;7.25;3.42;;;;;;;27.45;57.02;98060.44;2087741;28;20059;-54
2023/08/03 00:27:34;;;;;;;9.43;3.35;;;;;;;27.39;56.88;98059.66;2084554;28;20095;-56
2023/08/03 00:28:35;;;;;;;3.63;3.00;;;;;;;27.37;57.14;98059.91;2087685;28;20061;-48
2023/08/03 00:29:36;;;;;;;7.30;2.95;;;;;;;27.40;56.91;98061.25;2085223;28;20131;-54
2023/08/03 00:30:38;;;;;;;8.30;3.28;;;;;;;27.45;56.60;98055.81;2086056;28;20048;-53
2023/08/03 00:31:38;;;;;;;12.27;3.30;;;;;;;27.48;56.76;98057.19;2086423;28;20143;-53
2023/08/03 00:32:40;;;;;;;5.82;3.58;;;;;;;27.51;56.36;98054.69;2085706;28;20059;-51
2023/08/03 00:33:42;;;;;;;6.22;3.17;;;;;;;27.54;56.33;98053.34;2086191;28;20048;-52
2023/08/03 00:34:44;;;;;;;7.38;2.63;;;;;;;27.55;55.95;98052.25;2087416;28;20041;-52
2023/08/03 00:35:45;;;;;;;8.88;4.05;;;;;;;27.52;55.91;98050.06;2088257;28;20567;-48
2023/08/03 00:36:46;;;;;;;8.48;3.05;;;;;;;27.48;56.48;98046.28;2080782;28;20425;-54
2023/08/03 00:37:48;;;;;;;8.98;3.47;;;;;;;27.49;56.39;98045.19;2075525;28;20506;-54
2023/08/03 00:38:50;;;;;;;4.57;3.03;;;;;;;27.49;56.26;98045.19;2075517;28;20052;-56
2023/08/03 00:39:51;;;;;;;13.93;2.88;;;;;;;27.51;56.31;98043.00;2084618;28;20048;-49
2023/08/03 00:40:53;;;;;;;8.93;3.45;;;;;;;27.51;56.35;98041.09;2085884;28;20066;-52
2023/08/03 00:41:53;;;;;;;4.38;2.67;;;;;;;27.50;56.65;98044.09;2086096;28;20117;-53
2023/08/03 00:42:55;;;;;;;5.47;2.42;;;;;;;27.54;56.50;98043.25;2088343;28;20511;-48
2023/08/03 00:43:56;;;;;;;10.15;3.17;;;;;;;27.56;56.65;98040.25;2085516;28;20045;-48
2023/08/03 00:44:58;;;;;;;4.32;2.65;;;;;;;27.57;56.59;98039.16;2086969;28;20075;-50
2023/08/03 00:45:59;;;;;;;6.45;3.45;;;;;;;27.55;56.01;98041.34;2086893;28;20490;-50
2023/08/03 00:47:01;;;;;;;7.10;2.53;;;;;;;27.55;56.47;98042.19;2085400;28;20059;-52
2023/08/03 00:48:02;;;;;;;9.30;3.17;;;;;;;27.52;56.52;98034.53;2085466;28;20078;-54
2023/08/03 00:49:05;;;;;;;7.32;2.95;;;;;;;27.53;56.58;98041.63;2086774;28;20041;-51
2023/08/03 00:50:06;;;;;;;4.03;2.67;;;;;;;27.56;56.42;98040.25;2084766;28;20476;-54
2023/08/03 00:51:08;;;;;;;6.65;3.20;;;;;;;27.57;56.80;98039.16;2087332;28;20044;-55
2023/08/03 00:52:09;;;;;;;10.85;3.00;;;;;;;27.58;56.57;98040.78;2088120;28;20114;-50
2023/08/03 00:53:11;;;;;;;7.70;3.22;;;;;;;27.57;56.73;98036.44;2086625;28;20094;-53
2023/08/03 00:54:11;;;;;;;8.07;3.22;;;;;;;27.59;56.65;98039.72;2086704;28;20036;-48
2023/08/03 00:55:13;;;;;;;3.92;2.88;;;;;;;27.62;56.11;98036.44;2086379;28;20518;-53
2023/08/03 00:56:14;;;;;;;3.92;2.30;;;;;;;27.62;56.17;98030.97;2071238;28;20106;-56
2023/08/03 00:57:15;;;;;;;5.22;3.30;;;;;;;27.61;55.99;98030.16;2069337;28;20110;-50
2023/08/03 00:58:16;;;;;;;5.93;2.92;;;;;;;27.65;55.79;98033.16;2068658;28;21034;-54
2023/08/03 00:59:17;;;;;;;6.53;2.80;;;;;;;27.63;55.74;98027.16;2076635;28;20057;-51
2023/08/03 01:00:19;;;;;;;7.18;2.75;;;;;;;27.66;55.92;98039.41;2078522;28;20045;-56
2023/08/03 01:01:20;;;;;;;5.18;3.10;;;;;;;27.67;55.80;98036.41;2076005;28;20568;-52
2023/08/03 01:02:22;;;;;;;7.57;2.65;;;;;;;27.66;55.29;98034.75;2085509;28;20045;-54
2023/08/03 01:03:23;;;;;;;9.32;3.65;;;;;;;27.53;56.71;98035.38;2078165;28;20092;-52
2023/08/03 01:04:25;;;;;;;11.57;2.70;;;;;;;27.50;56.73;98033.22;2084724;28;20605;-53
2023/08/03 01:05:27;;;;;;;5.20;2.97;;;;;;;27.47;56.71;98036.47;2086644;28;21296;-54
2023/08/03 01:06:27;;;;;;;5.72;2.70;;;;;;;27.43;56.65;98038.94;2085826;28;20099;-52
2023/08/03 01:07:29;;;;;;;9.15;2.90;;;;;;;27.49;56.52;98031.56;2086722;28;20063;-47
2023/08/03 01:08:30;;;;;;;7.00;2.88;;;;;;;27.50;56.25;98019.59;2086138;28;20049;-50
2023/08/03 01:09:32;;;;;;;4.95;2.88;;;;;;;27.50;56.33;98023.13;2087928;28;20370;-52
2023/08/03 01:10:33;;;;;;;4.72;2.72;;;;;;;27.49;56.38;98029.66;2087055;28;20079;-50
2023/08/03 01:11:35;;;;;;;4.30;3.13;;;;;;;27.47;56.39;98020.97;2088927;28;20433;-47
2023/08/03 01:12:36;;;;;;;9.85;3.65;;;;;;;27.43;56.82;98022.59;2085285;28;20048;-50
2023/08/03 01:13:38;;;;;;;5.82;2.75;;;;;;;27.31;57.62;98028.34;2085199;28;20123;-48
2023/08/03 01:14:39;;;;;;;10.30;3.08;;;;;;;27.21;57.93;98022.91;2087302;28;20061;-47
2023/08/03 01:15:40;;;;;;;7.03;2.92;;;;;;;27.12;58.39;98019.91;2087872;28;20048;-53
2023/08/03 01:16:41;;;;;;;8.48;2.97;;;;;;;27.14;57.66;98022.34;2079211;28;20052;-51
2023/08/03 01:17:43;;;;;;;9.48;3.40;;;;;;;27.11;57.51;98017.47;2084334;28;20106;-52
2023/08/03 01:18:44;;;;;;;7.75;3.25;;;;;;;27.01;58.33;98017.47;2085484;28;20105;-54
2023/08/03 01:19:47;;;;;;;6.20;3.15;;;;;;;27.01;58.30;98012.03;2086787;28;20059;-50
2023/08/03 01:20:49;;;;;;;9.60;3.08;;;;;;;27.01;58.35;98017.47;2087407;28;20106;-50
2023/08/03 01:21:52;;;;;;;9.77;3.45;;;;;;;26.97;58.77;98006.31;2084065;28;20043;-51
2023/08/03 01:22:54;;;;;;;4.18;2.88;;;;;;;26.88;58.97;98005.22;2087870;28;20498;-53
2023/08/03 01:23:57;;;;;;;6.60;2.97;;;;;;;26.85;59.44;98008.47;2087198;28;20528;-47
2023/08/03 01:24:58;;;;;;;6.65;3.35;;;;;;;26.87;58.55;98003.59;2086767;28;20044;-50
2023/08/03 01:26:00;;;;;;;10.68;4.05;;;;;;;26.82;59.49;98000.88;2079783;28;20048;-52
2023/08/03 01:27:01;;;;;;;8.05;3.25;;;;;;;26.78;59.26;97992.44;2078076;28;20570;-51
2023/08/03 01:28:04;;;;;;;6.68;2.97;;;;;;;26.74;59.34;98007.66;2078054;28;20052;-55
2023/08/03 01:29:05;;;;;;;6.75;3.17;;;;;;;26.76;59.30;97999.25;2077164;28;20527;-48
2023/08/03 01:30:08;;;;;;;7.30;5.13;;;;;;;26.72;59.45;97993.53;2080987;28;20045;-53
2023/08/03 01:31:09;;;;;;;8.30;2.70;;;;;;;26.72;59.30;98004.44;2077980;28;20168;-51
2023/08/03 01:32:11;;;;;;;7.85;3.13;;;;;;;26.70;59.62;98001.16;2077662;28;20402;-52
2023/08/03 01:33:12;;;;;;;8.88;3.55;;;;;;;26.66;59.76;98002.78;2078769;28;20049;-54
2023/08/03 01:34:14;;;;;;;7.35;4.13;;;;;;;26.65;59.39;97999.25;2078811;28;20048;-47
2023/08/03 01:35:14;;;;;;;5.75;3.42;;;;;;;26.67;59.85;97990.81;2077302;28;20094;-53
2023/08/03 01:36:17;;;;;;;6.32;2.88;;;;;;;26.62;59.99;97990.81;2075004;28;20094;-53
2023/08/03 01:37:18;;;;;;;7.70;3.25;;;;;;;26.60;59.71;97995.69;2082924;28;20041;-47
2023/08/03 01:38:21;;;;;;;6.47;2.83;;;;;;;26.59;59.98;97989.44;2086461;28;20044;-52
2023/08/03 01:39:24;;;;;;;10.20;3.15;;;;;;;26.60;59.78;97998.41;2084057;28;20444;-53
2023/08/03 01:40:26;;;;;;;7.72;3.88;;;;;;;26.56;59.86;97984.56;2086572;28;20052;-50
2023/08/03 01:41:27;;;;;;;17.38;4.88;;;;;;;26.55;60.09;97987.53;2087173;28;20079;-54
2023/08/03 01:42:28;;;;;;;6.38;3.20;;;;;;;26.56;59.63;97984.56;2089227;28;20490;-48
2023/08/03 01:43:29;;;;;;;6.05;3.10;;;;;;;26.58;59.55;97995.16;2085388;28;20468;-48
2023/08/03 01:44:31;;;;;;;11.00;3.53;;;;;;;26.54;60.14;97985.91;2086569;28;20251;-47
2023/08/03 01:45:32;;;;;;;5.43;3.15;;;;;;;26.50;60.02;97985.63;2085702;28;20070;-48
2023/08/03 01:46:33;;;;;;;5.97;3.25;;;;;;;26.52;59.65;97983.44;2088306;28;20059;-52
2023/08/03 01:47:34;;;;;;;5.95;2.83;;;;;;;26.50;60.02;97985.63;2086086;28;20272;-48
2023/08/03 01:48:35;;;;;;;9.80;3.10;;;;;;;26.45;60.09;97983.69;2085946;28;20049;-50
2023/08/03 01:49:37;;;;;;;6.25;3.25;;;;;;;26.39;60.26;97983.97;2086333;28;20399;-49
2023/08/03 01:50:38;;;;;;;8.05;3.53;;;;;;;26.38;59.90;97982.31;2085844;28;20349;-52
2023/08/03 01:51:40;;;;;;;8.13;3.80;;;;;;;26.30;60.53;97980.97;2088344;28;20048;-48
2023/08/03 01:52:41;;;;;;;4.85;2.95;;;;;;;26.33;60.32;97975.00;2087300;28;20053;-47
2023/08/03 01:53:44;;;;;;;7.35;3.00;;;;;;;26.29;60.88;97976.59;2087311;28;20475;-49
2023/08/03 01:54:44;;;;;;;7.72;3.60;;;;;;;26.27;60.89;97981.50;2077528;28;20326;-48
2023/08/03 01:55:46;;;;;;;3.90;2.83;;;;;;;26.27;60.81;97981.50;2085565;28;20048;-49
2023/08/03 01:56:47;;;;;;;6.93;3.58;;;;;;;26.24;60.66;97982.88;2088447;28;20494;-51
2023/08/03 01:57:48;;;;;;;10.18;4.25;;;;;;;26.22;60.70;97981.50;2086966;28;20335;-48
2023/08/03 01:58:49;;;;;;;6.70;3.15;;;;;;;26.25;60.71;97984.50;2088585;28;20390;-50
2023/08/03 01:59:50;;;;;;;8.95;3.85;;;;;;;26.21;60.63;97983.38;2090034;28;20058;-50
2023/08/03 02:00:51;;;;;;;6.40;3.15;;;;;;;26.23;60.56;97980.41;2089025;28;20540;-49
2023/08/03 02:01:52;;;;;;;6.05;3.15;;;;;;;26.21;60.86;97982.56;2089541;28;20056;-50
2023/08/03 02:02:53;;;;;;;10.30;2.97;;;;;;;26.15;60.79;97983.66;2088426;28;20044;-49
2023/08/03 02:03:54;;;;;;;11.10;3.17;;;;;;;26.12;60.49;97979.56;2085688;28;20507;-49
2023/08/03 02:04:55;;;;;;;10.38;3.40;;;;;;;26.12;60.86;97978.75;2085628;28;20048;-48
2023/08/03 02:05:57;;;;;;;10.20;3.22;;;;;;;26.08;60.79;97982.03;2087420;28;20044;-50
2023/08/03 02:07:08;;;;;;;9.05;3.25;;;;;;;26.14;60.44;97979.31;2083296;28;20209;-48
2023/08/03 02:08:09;;;;;;;8.13;3.55;;;;;;;26.09;60.84;97977.41;2080656;28;20107;-47
2023/08/03 02:09:11;;;;;;;5.43;3.50;;;;;;;26.06;61.29;97980.66;2078828;28;20099;-49
2023/08/03 02:10:13;;;;;;;9.77;3.25;;;;;;;26.05;61.10;97974.41;2078802;28;20106;-47
2023/08/03 02:11:15;;;;;;;3.97;3.10;;;;;;;26.01;61.18;97973.28;2072211;28;20040;-52
2023/08/03 02:12:16;;;;;;;5.85;3.13;;;;;;;26.04;60.80;97972.75;2072937;28;20136;-49
2023/08/03 02:13:18;;;;;;;12.68;3.65;;;;;;;26.07;60.93;97972.22;2071409;28;20384;-47
2023/08/03 02:14:18;;;;;;;8.40;3.00;;;;;;;26.07;60.66;97971.41;2071074;28;20045;-48
2023/08/03 02:15:20;;;;;;;12.10;4.25;;;;;;;26.12;60.85;97973.31;2066072;28;20451;-48
2023/08/03 02:16:21;;;;;;;6.47;3.38;;;;;;;26.13;60.48;97981.19;2070951;28;20045;-47
2023/08/03 02:17:23;;;;;;;7.70;3.47;;;;;;;26.11;60.93;97971.69;2077219;28;20053;-49
2023/08/03 02:18:23;;;;;;;8.15;3.35;;;;;;;26.10;61.01;97978.22;2069829;28;20083;-47
2023/08/03 02:19:25;;;;;;;12.07;4.55;;;;;;;26.06;60.78;97978.75;2078779;28;20064;-48
2023/08/03 02:20:26;;;;;;;7.13;3.65;;;;;;;26.04;61.49;97978.19;2079333;28;20154;-48
2023/08/03 02:21:28;;;;;;;5.35;2.83;;;;;;;26.01;61.27;97977.91;2079665;28;20049;-52
2023/08/03 02:22:28;;;;;;;6.80;2.92;;;;;;;26.05;60.85;97977.13;2077670;28;20049;-49
2023/08/03 02:23:29;;;;;;;7.05;2.72;;;;;;;26.09;60.38;97982.84;2078960;28;20055;-48
2023/08/03 02:24:32;;;;;;;7.38;3.55;;;;;;;26.07;60.82;97985.81;2080696;28;20076;-50
2023/08/03 02:25:33;;;;;;;5.28;2.72;;;;;;;26.07;60.86;97982.28;2079409;28;20053;-49
2023/08/03 02:26:35;;;;;;;5.65;2.70;;;;;;;26.07;61.19;97985.00;2080409;28;20329;-49
2023/08/03 02:27:35;;;;;;;7.60;3.30;;;;;;;26.03;60.84;97984.72;2078940;28;20156;-50
2023/08/03 02:28:37;;;;;;;7.80;3.30;;;;;;;26.06;60.67;97981.47;2082682;28;20052;-49
2023/08/03 02:29:38;;;;;;;8.18;4.70;;;;;;;26.02;61.25;97977.66;2087788;28;20506;-49
2023/08/03 02:30:40;;;;;;;6.75;3.63;;;;;;;26.00;61.05;97979.00;2086944;28;20048;-50
2023/08/03 02:31:40;;;;;;;5.72;2.70;;;;;;;25.98;60.93;97976.56;2086219;28;20059;-49
2023/08/03 02:32:42;;;;;;;7.25;3.17;;;;;;;25.97;60.98;97977.66;2087167;28;20052;-49
2023/08/03 02:33:43;;;;;;;7.72;3.08;;;;;;;25.96;61.00;97978.72;2087342;28;20048;-48
2023/08/03 02:34:43;;;;;;;11.65;4.28;;;;;;;25.99;60.55;97975.50;2079728;28;20051;-48
2023/08/03 02:35:45;;;;;;;6.68;3.20;;;;;;;26.11;60.51;97977.94;2079111;28;21233;-50
2023/08/03 02:36:46;;;;;;;10.63;3.55;;;;;;;26.24;59.28;97982.03;2075726;28;20088;-48
2023/08/03 02:37:48;;;;;;;7.07;3.03;;;;;;;26.24;59.63;97977.44;2070632;28;20049;-50
2023/08/03 02:38:48;;;;;;;8.60;3.42;;;;;;;26.17;60.46;97978.78;2068932;28;20081;-48
2023/08/03 02:39:50;;;;;;;6.32;3.25;;;;;;;26.10;60.55;97979.03;2067938;28;20066;-47
2023/08/03 02:40:52;;;;;;;7.85;3.40;;;;;;;26.04;60.50;97983.63;2074908;28;20048;-48
2023/08/03 02:41:53;;;;;;;9.10;3.63;;;;;;;26.10;60.47;97986.34;2079456;28;20064;-48
2023/08/03 02:42:55;;;;;;;7.30;3.50;;;;;;;26.10;60.05;97979.03;2077117;28;20578;-51
2023/08/03 02:43:56;;;;;;;7.75;2.97;;;;;;;26.10;60.33;97980.94;2079720;28;20080;-48
2023/08/03 02:44:57;;;;;;;7.97;3.03;;;;;;;26.14;59.95;97977.41;2078826;28;20055;-48
2023/08/03 02:45:58;;;;;;;5.32;2.47;;;;;;;26.22;59.84;97978.78;2079663;28;20053;-49
2023/08/03 02:47:00;;;;;;;6.50;3.42;;;;;;;26.29;59.70;97976.59;2078811;28;20053;-49
2023/08/03 02:48:00;;;;;;;7.32;3.58;;;;;;;26.38;59.59;97988.56;2079226;28;20461;-49
2023/08/03 02:49:02;;;;;;;8.35;3.22;;;;;;;26.37;58.67;97986.94;2079684;28;20300;-49
2023/08/03 02:50:03;;;;;;;6.43;3.80;;;;;;;26.24;59.43;97987.47;2077508;28;20448;-50
2023/08/03 02:51:05;;;;;;;8.10;3.28;;;;;;;26.19;59.70;97988.31;2077788;28;20447;-49
2023/08/03 02:52:06;;;;;;;10.88;3.85;;;;;;;26.22;59.95;97978.78;2078581;28;20080;-49
2023/08/03 02:53:08;;;;;;;7.00;2.90;;;;;;;26.29;59.53;97979.31;2079006;28;20404;-49
2023/08/03 02:54:08;;;;;;;6.30;3.95;;;;;;;26.37;59.05;97977.97;2076619;28;20527;-48
2023/08/03 02:55:12;;;;;;;5.95;2.97;;;;;;;26.41;58.98;97977.19;2078477;28;20049;-47
2023/08/03 02:56:12;;;;;;;6.68;3.90;;;;;;;26.42;58.68;97978.81;2067265;28;20084;-48
2023/08/03 02:57:14;;;;;;;9.38;3.10;;;;;;;26.45;58.69;97983.69;2075774;28;20056;-47
2023/08/03 02:58:15;;;;;;;5.55;3.08;;;;;;;26.45;58.30;97983.69;2074670;28;20053;-50
2023/08/03 02:59:18;;;;;;;6.13;3.00;;;;;;;26.49;58.60;97978.53;2079946;28;20083;-52
2023/08/03 03:00:20;;;;;;;6.65;3.33;;;;;;;26.49;59.10;97973.94;2080372;28;21089;-48
2023/08/03 03:01:22;;;;;;;6.88;2.92;;;;;;;26.55;58.41;97982.94;2079415;28;20037;-48
2023/08/03 03:02:23;;;;;;;4.55;2.83;;;;;;;26.54;58.07;97973.13;2079427;28;20049;-48
2023/08/03 03:03:24;;;;;;;8.15;2.65;;;;;;;26.52;58.53;97972.56;2079370;28;20051;-48
2023/08/03 03:04:25;;;;;;;7.57;3.10;;;;;;;26.50;57.76;97978.31;2079948;28;20670;-48
2023/08/03 03:05:27;;;;;;;9.80;3.20;;;;;;;26.49;58.04;97970.38;2079196;28;20102;-50
2023/08/03 03:06:27;;;;;;;5.50;2.90;;;;;;;26.41;57.95;97977.19;2076946;28;20336;-47
2023/08/03 03:07:31;;;;;;;8.18;3.08;;;;;;;26.32;58.98;97988.84;2079076;28;20045;-48
2023/08/03 03:08:34;;;;;;;7.10;3.22;;;;;;;26.26;59.12;97980.69;2088585;28;20411;-53
2023/08/03 03:09:35;;;;;;;9.38;3.55;;;;;;;26.27;59.28;97981.50;2089034;28;20419;-50
2023/08/03 03:10:38;;;;;;;7.75;3.20;;;;;;;26.35;59.00;97985.59;2088327;28;20333;-51
2023/08/03 03:11:38;;;;;;;5.63;3.28;;;;;;;26.44;58.27;97982.06;2085489;28;20052;-50
2023/08/03 03:12:40;;;;;;;8.95;3.05;;;;;;;26.49;58.15;97982.09;2088426;28;20570;-49
2023/08/03 03:13:41;;;;;;;8.63;3.90;;;;;;;26.50;57.96;97981.03;2087542;28;20056;-49
2023/08/03 03:14:43;;;;;;;6.13;2.95;;;;;;;26.45;58.24;97975.53;2088329;28;20059;-49
2023/08/03 03:15:43;;;;;;;4.93;3.00;;;;;;;26.49;58.01;97979.38;2082015;28;20045;-51
2023/08/03 03:16:44;;;;;;;11.98;2.88;;;;;;;26.55;57.98;97976.66;2081386;28;20056;-48
2023/08/03 03:17:46;;;;;;;4.35;2.53;;;;;;;26.56;57.80;97979.13;2087711;28;20445;-50
2023/08/03 03:18:46;;;;;;;6.90;2.85;;;;;;;26.56;57.20;97968.25;2088630;28;20191;-52
2023/08/03 03:19:48;;;;;;;7.63;3.10;;;;;;;26.59;57.72;97973.13;2085324;28;20048;-49
2023/08/03 03:20:49;;;;;;;5.47;3.28;;;;;;;26.64;57.59;97975.03;2087624;28;20048;-51
2023/08/03 03:21:50;;;;;;;4.28;3.00;;;;;;;26.68;57.21;97978.84;2086892;28;20056;-48
2023/08/03 03:22:51;;;;;;;7.32;2.97;;;;;;;26.71;57.10;97970.13;2088032;28;20436;-49
2023/08/03 03:23:53;;;;;;;7.70;3.40;;;;;;;26.71;56.87;97972.84;2085623;28;20045;-49
2023/08/03 03:24:54;;;;;;;6.63;2.17;;;;;;;26.67;56.89;97975.31;2082558;28;20045;-48
2023/08/03 03:25:57;;;;;;;7.53;3.30;;;;;;;26.67;57.06;97971.78;2075657;28;20041;-49
2023/08/03 03:26:57;;;;;;;7.90;3.55;;;;;;;26.68;57.07;97979.66;2079181;28;20087;-48
2023/08/03 03:28:04;;;;;;;5.80;2.78;;;;;;;26.70;57.40;97972.03;2076695;28;20068;-49
2023/08/03 03:29:04;;;;;;;7.43;3.17;;;;;;;26.71;56.98;97976.38;2078993;28;20052;-49
2023/08/03 03:30:08;;;;;;;4.82;2.75;;;;;;;26.66;56.76;97964.69;2077058;28;20061;-50
2023/08/03 03:31:08;;;;;;;3.97;2.45;;;;;;;26.70;57.16;97973.94;2079714;28;20059;-48
2023/08/03 03:32:09;;;;;;;4.80;2.70;;;;;;;26.66;56.96;97970.97;2077138;28;20045;-52
2023/08/03 03:33:11;;;;;;;3.78;2.72;;;;;;;26.59;57.31;97978.56;2070113;28;21028;-50
2023/08/03 03:34:11;;;;;;;6.35;3.20;;;;;;;26.54;57.58;97978.56;2076340;28;20053;-48
2023/08/03 03:35:13;;;;;;;7.43;3.22;;;;;;;26.41;57.66;97981.78;2077302;28;20041;-49
2023/08/03 03:36:15;;;;;;;6.40;3.30;;;;;;;26.40;57.34;97977.44;2077448;28;20045;-50
2023/08/03 03:37:16;;;;;;;7.22;2.85;;;;;;;26.38;57.80;97983.13;2078638;28;20089;-48
2023/08/03 03:38:17;;;;;;;4.70;2.92;;;;;;;26.29;57.76;97971.97;2079249;28;20064;-49
2023/08/03 03:39:18;;;;;;;9.05;3.80;;;;;;;26.26;57.60;97979.88;2077683;28;20045;-49
2023/08/03 03:40:20;;;;;;;7.57;3.17;;;;;;;26.23;57.74;97978.50;2078357;28;20679;-50
2023/08/03 03:41:22;;;;;;;3.92;2.58;;;;;;;26.19;57.77;97979.34;2077987;28;20887;-48
2023/08/03 03:42:24;;;;;;;6.35;3.10;;;;;;;26.17;57.81;97976.88;2077460;28;20049;-48
2023/08/03 03:43:24;;;;;;;5.13;2.70;;;;;;;26.18;58.41;97983.13;2076622;28;20104;-48
2023/08/03 03:44:26;;;;;;;5.65;2.60;;;;;;;26.21;57.72;97986.09;2077591;28;20127;-49
2023/08/03 03:45:27;;;;;;;5.78;3.47;;;;;;;26.26;57.92;97977.97;2076770;28;20082;-48
2023/08/03 03:46:28;;;;;;;9.95;3.75;;;;;;;26.35;57.38;97978.25;2079811;28;20488;-49
2023/08/03 03:47:29;;;;;;;6.95;3.00;;;;;;;26.26;57.68;97980.69;2078054;28;20448;-49
2023/08/03 03:48:31;;;;;;;5.05;2.45;;;;;;;26.24;57.76;97977.44;2079210;28;20048;-48
2023/08/03 03:49:32;;;;;;;8.13;3.42;;;;;;;26.13;58.52;97980.38;2078257;28;20060;-49
2023/08/03 03:50:34;;;;;;;4.60;3.28;;;;;;;26.08;58.15;97976.59;2075802;28;20140;-51
2023/08/03 03:51:34;;;;;;;6.50;3.20;;;;;;;26.12;58.33;97974.13;2070513;28;20060;-48
2023/08/03 03:52:36;;;;;;;10.20;3.67;;;;;;;26.19;57.89;97973.91;2069178;28;20053;-49
2023/08/03 03:53:37;;;;;;;7.53;3.70;;;;;;;26.14;57.98;97974.69;2066168;28;20063;-50
2023/08/03 03:54:40;;;;;;;4.38;3.35;;;;;;;26.02;58.28;97977.66;2073989;28;20041;-49
2023/08/03 03:55:40;;;;;;;5.22;2.72;;;;;;;26.00;58.50;97977.09;2068966;28;20192;-50
2023/08/03 03:56:44;;;;;;;5.00;3.38;;;;;;;26.08;58.55;97979.31;2073439;28;20083;-49
2023/08/03 03:57:44;;;;;;;5.35;2.88;;;;;;;26.13;57.97;97980.38;2069654;28;20309;-52
2023/08/03 03:58:46;;;;;;;6.28;2.75;;;;;;;26.23;57.73;97978.50;2065674;28;20052;-49
2023/08/03 03:59:47;;;;;;;6.85;2.92;;;;;;;26.18;57.66;97974.97;2074203;28;20154;-49
2023/08/03 04:00:48;;;;;;;9.07;3.10;;;;;;;26.15;57.91;97979.03;2075700;28;20118;-50
2023/08/03 04:01:49;;;;;;;9.07;3.67;;;;;;;26.08;58.14;97987.47;2071883;28;20049;-49
2023/08/03 04:02:52;;;;;;;5.30;3.80;;;;;;;26.08;58.47;97982.03;2079229;28;20106;-48
2023/08/03 04:03:52;;;;;;;6.07;3.03;;;;;;;26.04;58.10;97978.19;2086838;28;20056;-50
2023/08/03 04:04:54;;;;;;;8.10;3.05;;;;;;;26.07;57.97;97983.09;2085605;28;20391;-50
2023/08/03 04:05:55;;;;;;;7.68;3.30;;;;;;;25.82;59.24;97977.56;2085136;28;20310;-48
2023/08/03 04:06:56;;;;;;;4.75;2.80;;;;;;;25.61;59.56;97982.91;2085020;28;20578;-48
2023/08/03 04:07:57;;;;;;;6.13;3.60;;;;;;;25.54;59.82;97987.75;2085042;28;20044;-50
2023/08/03 04:08:58;;;;;;;8.15;3.80;;;;;;;25.41;60.29;97980.13;2083877;28;20048;-48
2023/08/03 04:09:59;;;;;;;5.22;2.92;;;;;;;25.35;60.54;97979.28;2087051;28;20078;-49
2023/08/03 04:11:00;;;;;;;7.88;3.33;;;;;;;25.28;60.07;97983.31;2082996;28;20216;-49
2023/08/03 04:12:04;;;;;;;5.32;3.97;;;;;;;25.28;60.14;97980.59;2086065;28;20461;-49
2023/08/03 04:13:04;;;;;;;11.80;3.95;;;;;;;25.25;59.94;97978.41;2083617;28;20312;-49
2023/08/03 04:14:06;;;;;;;7.13;3.45;;;;;;;25.38;59.53;97981.47;2083503;28;20060;-48
2023/08/03 04:15:08;;;;;;;6.90;3.33;;;;;;;25.53;59.39;97974.47;2086497;28;20071;-49
2023/08/03 04:16:09;;;;;;;5.45;2.85;;;;;;;25.75;58.65;97968.84;2085029;28;20069;-49
2023/08/03 04:17:10;;;;;;;7.68;3.70;;;;;;;25.71;58.17;97968.56;2077748;28;27549;-49
2023/08/03 04:18:12;;;;;;;3.88;2.88;;;;;;;25.75;58.26;97971.56;2084555;28;20872;-50
2023/08/03 04:19:12;;;;;;;6.60;3.20;;;;;;;25.78;57.31;97974.56;2084790;28;20049;-48
2023/08/03 04:20:14;;;;;;;7.63;3.60;;;;;;;25.53;58.32;97971.75;2086726;28;20506;-49
2023/08/03 04:21:15;;;;;;;3.88;2.25;;;;;;;25.70;58.13;97968.84;2085168;28;20052;-48
2023/08/03 04:22:17;;;;;;;4.75;2.55;;;;;;;25.77;57.11;97969.38;2084956;28;20047;-49
2023/08/03 04:23:17;;;;;;;9.27;3.05;;;;;;;25.71;57.79;97978.59;2084154;28;20072;-49
2023/08/03 04:24:18;;;;;;;7.50;3.17;;;;;;;25.57;57.72;97987.22;2085283;28;20545;-49
2023/08/03 04:25:20;;;;;;;4.90;3.00;;;;;;;25.67;57.52;97981.03;2085590;28;20052;-49
2023/08/03 04:26:21;;;;;;;3.83;3.13;;;;;;;25.64;57.28;97984.28;2084173;28;20076;-49
2023/08/03 04:27:24;;;;;;;5.20;2.60;;;;;;;25.47;57.57;97989.09;2084245;28;20041;-48
2023/08/03 04:28:24;;;;;;;10.30;3.78;;;;;;;25.32;58.40;97989.81;2084715;28;21127;-48
2023/08/03 04:29:26;;;;;;;8.73;3.08;;;;;;;25.07;59.29;97995.88;2084814;28;20462;-50
2023/08/03 04:30:27;;;;;;;4.38;3.05;;;;;;;25.05;59.09;97993.44;2085501;28;20041;-52
2023/08/03 04:31:29;;;;;;;3.72;2.13;;;;;;;25.16;58.49;97999.78;2082602;28;20056;-53
2023/08/03 04:32:30;;;;;;;8.65;2.72;;;;;;;25.24;58.11;97995.75;2088546;28;20076;-49
2023/08/03 04:33:31;;;;;;;8.23;3.17;;;;;;;25.40;57.97;97995.56;2085472;28;20057;-49
2023/08/03 04:34:32;;;;;;;4.40;3.13;;;;;;;25.49;57.36;97992.34;2076981;28;20057;-51
2023/08/03 04:35:34;;;;;;;6.03;2.95;;;;;;;25.51;57.40;97999.16;2083502;28;20051;-49
2023/08/03 04:36:35;;;;;;;7.85;3.10;;;;;;;25.51;57.59;97995.63;2086334;28;20063;-50
2023/08/03 04:37:36;;;;;;;9.30;3.28;;;;;;;25.59;57.54;97995.94;2084583;28;20508;-49
2023/08/03 04:38:37;;;;;;;3.85;2.80;;;;;;;25.59;57.05;98001.38;2085610;28;20423;-49
2023/08/03 04:39:39;;;;;;;6.40;3.58;;;;;;;25.61;57.45;98001.13;2084076;28;20255;-49
2023/08/03 04:40:40;;;;;;;6.22;2.85;;;;;;;25.70;56.83;98002.22;2084127;28;20056;-49
2023/08/03 04:41:41;;;;;;;8.63;3.03;;;;;;;25.51;56.82;98004.59;2086854;28;20060;-50
2023/08/03 04:42:43;;;;;;;12.10;3.20;;;;;;;25.64;56.75;98009.53;2085770;28;20056;-49
2023/08/03 04:43:45;;;;;;;5.63;3.03;;;;;;;25.58;57.01;98005.19;2084042;28;20560;-49
2023/08/03 04:44:46;;;;;;;5.15;3.10;;;;;;;25.69;56.38;98010.66;2085193;28;20922;-48
2023/08/03 04:45:48;;;;;;;6.63;3.58;;;;;;;25.73;56.25;98003.59;2083564;28;20150;-49
2023/08/03 04:46:48;;;;;;;6.20;2.63;;;;;;;25.66;56.35;98009.28;2083558;28;20132;-49
2023/08/03 04:47:50;;;;;;;6.05;2.92;;;;;;;25.59;56.33;98016.84;2085374;28;20452;-48
2023/08/03 04:48:51;;;;;;;7.78;3.13;;;;;;;25.62;56.80;98010.88;2083057;28;20094;-48